sensor_id;sensor_type;location;lat;lon;timestamp;P1;durP1;ratioP1;P2;durP2;ratioP2
9280;SDS011;4679;47.966;7.958;2023-06-22T06:09:29;10.43;;;4.83;;
9280;SDS011;4679;47.966;7.958;2023-06-22T06:11:31;7.20;;;4.30;;
9280;SDS011;4679;47.966;7.958;2023-06-22T06:13:33;8.70;;;4.67;;
9280;SDS011;4679;47.966;7.958;2023-06-22T06:15:34;8.70;;;4.27;;
9280;SDS011;4679;47.966;7.958;2023-06-22T06:17:44;9.17;;;4.50;;
9280;SDS011;4679;47.966;7.958;2023-06-22T06:19:46;8.23;;;4.00;;
9280;SDS011;4679;47.966;7.958;2023-06-22T06:21:48;4.30;;;3.73;;
9280;SDS011;4679;47.966;7.958;2023-06-22T06:23:50;6.47;;;3.90;;
9280;SDS011;4679;47.966;7.958;2023-06-22T06:25:54;4.97;;;4.13;;
9280;SDS011;4679;47.966;7.958;2023-06-22T06:27:56;6.07;;;4.07;;
9280;SDS011;4679;47.966;7.958;2023-06-22T06:29:58;9.47;;;4.80;;
9280;SDS011;4679;47.966;7.958;2023-06-22T06:31:59;6.33;;;4.47;;
9280;SDS011;4679;47.966;7.958;2023-06-22T06:34:01;8.40;;;5.50;;
9280;SDS011;4679;47.966;7.958;2023-06-22T06:36:03;5.60;;;4.57;;
9280;SDS011;4679;47.966;7.958;2023-06-22T06:38:05;10.80;;;6.07;;
9280;SDS011;4679;47.966;7.958;2023-06-22T06:40:07;8.43;;;4.50;;
9280;SDS011;4679;47.966;7.958;2023-06-22T06:42:12;8.13;;;5.33;;
9280;SDS011;4679;47.966;7.958;2023-06-22T06:44:13;6.03;;;4.80;;
9280;SDS011;4679;47.966;7.958;2023-06-22T06:46:15;5.00;;;4.60;;
9280;SDS011;4679;47.966;7.958;2023-06-22T06:48:18;7.17;;;5.43;;
9280;SDS011;4679;47.966;7.958;2023-06-22T06:50:20;10.10;;;6.50;;
9280;SDS011;4679;47.966;7.958;2023-06-22T06:52:22;10.60;;;6.07;;
9280;SDS011;4679;47.966;7.958;2023-06-22T06:54:24;7.43;;;6.37;;
9280;SDS011;4679;47.966;7.958;2023-06-22T06:56:27;9.33;;;6.07;;
9280;SDS011;4679;47.966;7.958;2023-06-22T06:58:31;7.30;;;6.37;;
9280;SDS011;4679;47.966;7.958;2023-06-22T07:00:33;7.10;;;6.33;;
9280;SDS011;4679;47.966;7.958;2023-06-22T07:02:36;8.03;;;5.87;;
9280;SDS011;4679;47.966;7.958;2023-06-22T07:04:37;8.07;;;6.00;;
9280;SDS011;4679;47.966;7.958;2023-06-22T07:06:39;9.17;;;6.23;;
9280;SDS011;4679;47.966;7.958;2023-06-22T07:08:42;6.23;;;5.03;;
9280;SDS011;4679;47.966;7.958;2023-06-22T07:10:43;5.75;;;4.80;;
9280;SDS011;4679;47.966;7.958;2023-06-22T07:12:45;8.10;;;5.63;;
9280;SDS011;4679;47.966;7.958;2023-06-22T07:14:48;6.37;;;5.53;;
9280;SDS011;4679;47.966;7.958;2023-06-22T07:16:51;9.20;;;6.10;;
9280;SDS011;4679;47.966;7.958;2023-06-22T07:18:53;7.87;;;6.00;;
9280;SDS011;4679;47.966;7.958;2023-06-22T07:20:54;8.57;;;6.63;;
9280;SDS011;4679;47.966;7.958;2023-06-22T07:22:56;12.60;;;6.18;;
9280;SDS011;4679;47.966;7.958;2023-06-22T07:24:58;6.70;;;6.10;;
9280;SDS011;4679;47.966;7.958;2023-06-22T07:27:00;9.50;;;6.03;;
9280;SDS011;4679;47.966;7.958;2023-06-22T07:29:03;5.83;;;4.93;;
9280;SDS011;4679;47.966;7.958;2023-06-22T07:31:06;7.07;;;5.63;;
9280;SDS011;4679;47.966;7.958;2023-06-22T07:33:08;9.30;;;5.70;;
9280;SDS011;4679;47.966;7.958;2023-06-22T07:35:10;7.10;;;4.07;;
9280;SDS011;4679;47.966;7.958;2023-06-22T07:37:11;6.37;;;4.47;;
9280;SDS011;4679;47.966;7.958;2023-06-22T07:39:13;9.85;;;4.35;;
9280;SDS011;4679;47.966;7.958;2023-06-22T07:41:15;5.80;;;4.23;;
9280;SDS011;4679;47.966;7.958;2023-06-22T07:43:17;10.63;;;5.43;;
9280;SDS011;4679;47.966;7.958;2023-06-22T07:45:18;4.82;;;4.25;;
9280;SDS011;4679;47.966;7.958;2023-06-22T07:47:22;12.82;;;5.05;;
9280;SDS011;4679;47.966;7.958;2023-06-22T07:49:25;5.63;;;4.25;;
9280;SDS011;4679;47.966;7.958;2023-06-22T07:51:27;5.78;;;5.00;;
9280;SDS011;4679;47.966;7.958;2023-06-22T07:53:28;7.97;;;4.22;;
9280;SDS011;4679;47.966;7.958;2023-06-22T07:55:30;7.90;;;4.15;;
9280;SDS011;4679;47.966;7.958;2023-06-22T07:57:32;10.88;;;5.28;;
9280;SDS011;4679;47.966;7.958;2023-06-22T07:59:34;5.07;;;4.55;;
9280;SDS011;4679;47.966;7.958;2023-06-22T08:01:36;6.45;;;4.40;;
9280;SDS011;4679;47.966;7.958;2023-06-22T08:03:39;6.03;;;4.72;;
9280;SDS011;4679;47.966;7.958;2023-06-22T08:05:41;6.38;;;4.45;;
9280;SDS011;4679;47.966;7.958;2023-06-22T08:07:43;7.28;;;4.78;;
9280;SDS011;4679;47.966;7.958;2023-06-22T08:09:45;5.60;;;4.57;;
9280;SDS011;4679;47.966;7.958;2023-06-22T08:11:48;9.18;;;4.13;;
9280;SDS011;4679;47.966;7.958;2023-06-22T08:13:50;7.25;;;4.18;;
9280;SDS011;4679;47.966;7.958;2023-06-22T08:15:51;7.18;;;4.30;;
9280;SDS011;4679;47.966;7.958;2023-06-22T08:17:54;7.93;;;3.83;;
9280;SDS011;4679;47.966;7.958;2023-06-22T08:19:57;6.32;;;3.53;;
9280;SDS011;4679;47.966;7.958;2023-06-22T08:21:58;5.75;;;3.53;;
9280;SDS011;4679;47.966;7.958;2023-06-22T08:24:00;6.28;;;4.25;;
9280;SDS011;4679;47.966;7.958;2023-06-22T08:26:02;6.00;;;4.03;;
9280;SDS011;4679;47.966;7.958;2023-06-22T08:28:04;11.68;;;4.15;;
9280;SDS011;4679;47.966;7.958;2023-06-22T08:30:06;7.80;;;3.55;;
9280;SDS011;4679;47.966;7.958;2023-06-22T08:32:08;6.65;;;4.15;;
9280;SDS011;4679;47.966;7.958;2023-06-22T08:34:10;6.70;;;4.22;;
9280;SDS011;4679;47.966;7.958;2023-06-22T08:36:13;4.72;;;3.90;;
9280;SDS011;4679;47.966;7.958;2023-06-22T08:38:16;6.13;;;3.97;;
9280;SDS011;4679;47.966;7.958;2023-06-22T08:40:19;5.03;;;4.47;;
9280;SDS011;4679;47.966;7.958;2023-06-22T08:42:21;5.80;;;3.83;;
9280;SDS011;4679;47.966;7.958;2023-06-22T08:44:24;10.65;;;4.15;;
9280;SDS011;4679;47.966;7.958;2023-06-22T08:46:26;7.03;;;3.95;;
9280;SDS011;4679;47.966;7.958;2023-06-22T08:48:33;10.80;;;4.22;;
9280;SDS011;4679;47.966;7.958;2023-06-22T08:50:35;4.97;;;4.20;;
9280;SDS011;4679;47.966;7.958;2023-06-22T08:52:38;6.65;;;4.53;;
9280;SDS011;4679;47.966;7.958;2023-06-22T08:54:41;5.97;;;3.78;;
9280;SDS011;4679;47.966;7.958;2023-06-22T08:56:43;5.47;;;4.07;;
9280;SDS011;4679;47.966;7.958;2023-06-22T08:58:45;7.65;;;3.38;;
9280;SDS011;4679;47.966;7.958;2023-06-22T09:00:46;7.13;;;3.90;;
9280;SDS011;4679;47.966;7.958;2023-06-22T09:02:48;8.32;;;3.70;;
9280;SDS011;4679;47.966;7.958;2023-06-22T09:04:50;6.80;;;3.70;;
9280;SDS011;4679;47.966;7.958;2023-06-22T09:06:55;12.27;;;4.32;;
9280;SDS011;4679;47.966;7.958;2023-06-22T09:08:58;6.68;;;4.28;;
9280;SDS011;4679;47.966;7.958;2023-06-22T09:11:00;10.20;;;4.38;;
9280;SDS011;4679;47.966;7.958;2023-06-22T09:13:02;9.18;;;3.78;;
9280;SDS011;4679;47.966;7.958;2023-06-22T09:15:04;8.82;;;3.92;;
9280;SDS011;4679;47.966;7.958;2023-06-22T09:17:07;7.32;;;4.40;;
9280;SDS011;4679;47.966;7.958;2023-06-22T09:19:09;6.15;;;3.97;;
9280;SDS011;4679;47.966;7.958;2023-06-22T09:21:11;7.68;;;4.20;;
9280;SDS011;4679;47.966;7.958;2023-06-22T09:23:13;8.70;;;5.22;;
9280;SDS011;4679;47.966;7.958;2023-06-22T09:25:16;5.22;;;4.50;;
9280;SDS011;4679;47.966;7.958;2023-06-22T09:27:20;5.95;;;3.78;;
9280;SDS011;4679;47.966;7.958;2023-06-22T09:29:22;5.05;;;3.88;;
9280;SDS011;4679;47.966;7.958;2023-06-22T09:31:24;6.70;;;4.03;;
9280;SDS011;4679;47.966;7.958;2023-06-22T09:33:27;8.70;;;3.83;;
9280;SDS011;4679;47.966;7.958;2023-06-22T09:35:28;7.93;;;3.95;;
9280;SDS011;4679;47.966;7.958;2023-06-22T09:37:30;7.90;;;3.63;;
9280;SDS011;4679;47.966;7.958;2023-06-22T09:39:32;8.35;;;4.10;;
9280;SDS011;4679;47.966;7.958;2023-06-22T09:41:35;9.30;;;4.13;;
9280;SDS011;4679;47.966;7.958;2023-06-22T09:43:36;6.82;;;3.80;;
9280;SDS011;4679;47.966;7.958;2023-06-22T09:45:38;10.40;;;4.53;;
9280;SDS011;4679;47.966;7.958;2023-06-22T09:47:40;7.70;;;3.75;;
9280;SDS011;4679;47.966;7.958;2023-06-22T09:49:42;7.07;;;3.85;;
9280;SDS011;4679;47.966;7.958;2023-06-22T09:51:45;5.10;;;4.28;;
9280;SDS011;4679;47.966;7.958;2023-06-22T09:53:46;4.32;;;3.33;;
9280;SDS011;4679;47.966;7.958;2023-06-22T09:55:48;10.05;;;3.55;;
9280;SDS011;4679;47.966;7.958;2023-06-22T09:57:51;5.00;;;3.38;;
9280;SDS011;4679;47.966;7.958;2023-06-22T09:59:53;7.78;;;4.07;;
9280;SDS011;4679;47.966;7.958;2023-06-22T10:01:54;7.43;;;3.72;;
9280;SDS011;4679;47.966;7.958;2023-06-22T10:03:56;9.27;;;4.70;;
9280;SDS011;4679;47.966;7.958;2023-06-22T10:05:58;9.20;;;4.15;;
9280;SDS011;4679;47.966;7.958;2023-06-22T10:08:00;8.45;;;4.25;;
9280;SDS011;4679;47.966;7.958;2023-06-22T10:10:02;8.40;;;4.10;;
9280;SDS011;4679;47.966;7.958;2023-06-22T10:12:04;6.57;;;3.83;;
9280;SDS011;4679;47.966;7.958;2023-06-22T10:14:07;6.88;;;3.30;;
9280;SDS011;4679;47.966;7.958;2023-06-22T10:16:09;7.20;;;3.95;;
9280;SDS011;4679;47.966;7.958;2023-06-22T10:18:11;7.53;;;4.22;;
9280;SDS011;4679;47.966;7.958;2023-06-22T10:20:13;9.70;;;3.70;;
9280;SDS011;4679;47.966;7.958;2023-06-22T10:22:15;7.10;;;3.47;;
9280;SDS011;4679;47.966;7.958;2023-06-22T10:24:17;7.82;;;3.40;;
9280;SDS011;4679;47.966;7.958;2023-06-22T10:26:19;4.28;;;3.00;;
9280;SDS011;4679;47.966;7.958;2023-06-22T10:28:20;9.50;;;3.40;;
9280;SDS011;4679;47.966;7.958;2023-06-22T10:30:23;9.13;;;4.10;;
9280;SDS011;4679;47.966;7.958;2023-06-22T10:32:25;8.07;;;3.10;;
9280;SDS011;4679;47.966;7.958;2023-06-22T10:34:28;6.32;;;3.75;;
9280;SDS011;4679;47.966;7.958;2023-06-22T10:36:30;5.15;;;3.58;;
9280;SDS011;4679;47.966;7.958;2023-06-22T10:38:31;11.05;;;4.35;;
9280;SDS011;4679;47.966;7.958;2023-06-22T10:40:33;9.52;;;3.45;;
9280;SDS011;4679;47.966;7.958;2023-06-22T10:42:35;5.72;;;3.58;;
9280;SDS011;4679;47.966;7.958;2023-06-22T10:44:37;5.22;;;2.88;;
9280;SDS011;4679;47.966;7.958;2023-06-22T10:46:40;5.45;;;3.20;;
9280;SDS011;4679;47.966;7.958;2023-06-22T10:48:42;11.45;;;4.32;;
9280;SDS011;4679;47.966;7.958;2023-06-22T10:50:43;8.63;;;3.13;;
9280;SDS011;4679;47.966;7.958;2023-06-22T10:52:45;6.43;;;3.42;;
9280;SDS011;4679;47.966;7.958;2023-06-22T10:54:47;8.68;;;3.58;;
9280;SDS011;4679;47.966;7.958;2023-06-22T10:56:48;5.18;;;4.35;;
9280;SDS011;4679;47.966;7.958;2023-06-22T10:58:50;4.60;;;4.25;;
9280;SDS011;4679;47.966;7.958;2023-06-22T11:00:52;6.13;;;4.50;;
9280;SDS011;4679;47.966;7.958;2023-06-22T11:02:55;6.75;;;4.70;;
9280;SDS011;4679;47.966;7.958;2023-06-22T11:04:58;7.40;;;4.40;;
9280;SDS011;4679;47.966;7.958;2023-06-22T11:07:01;6.60;;;4.93;;
9280;SDS011;4679;47.966;7.958;2023-06-22T11:09:02;10.23;;;4.82;;
9280;SDS011;4679;47.966;7.958;2023-06-22T11:11:05;5.53;;;3.70;;
9280;SDS011;4679;47.966;7.958;2023-06-22T11:13:06;9.45;;;4.32;;
9280;SDS011;4679;47.966;7.958;2023-06-22T11:15:10;8.40;;;4.30;;
9280;SDS011;4679;47.966;7.958;2023-06-22T11:17:12;10.75;;;4.63;;
9280;SDS011;4679;47.966;7.958;2023-06-22T11:19:16;11.27;;;4.93;;
9280;SDS011;4679;47.966;7.958;2023-06-22T11:21:18;6.00;;;4.82;;
9280;SDS011;4679;47.966;7.958;2023-06-22T11:23:19;6.15;;;4.25;;
9280;SDS011;4679;47.966;7.958;2023-06-22T11:25:21;6.82;;;4.60;;
9280;SDS011;4679;47.966;7.958;2023-06-22T11:27:23;5.38;;;4.90;;
9280;SDS011;4679;47.966;7.958;2023-06-22T11:29:24;5.85;;;4.50;;
9280;SDS011;4679;47.966;7.958;2023-06-22T11:31:26;7.30;;;4.75;;
9280;SDS011;4679;47.966;7.958;2023-06-22T11:33:28;8.13;;;4.28;;
9280;SDS011;4679;47.966;7.958;2023-06-22T11:35:31;9.15;;;4.25;;
9280;SDS011;4679;47.966;7.958;2023-06-22T11:37:32;5.63;;;4.75;;
9280;SDS011;4679;47.966;7.958;2023-06-22T11:39:34;8.82;;;4.38;;
9280;SDS011;4679;47.966;7.958;2023-06-22T11:41:36;6.55;;;2.47;;
9280;SDS011;4679;47.966;7.958;2023-06-22T11:43:37;4.80;;;1.85;;
9280;SDS011;4679;47.966;7.958;2023-06-22T11:45:39;5.22;;;1.50;;
9280;SDS011;4679;47.966;7.958;2023-06-22T11:47:41;3.92;;;1.60;;
9280;SDS011;4679;47.966;7.958;2023-06-22T11:49:42;6.38;;;1.52;;
9280;SDS011;4679;47.966;7.958;2023-06-22T11:51:45;5.78;;;1.67;;
9280;SDS011;4679;47.966;7.958;2023-06-22T11:53:47;9.35;;;1.88;;
9280;SDS011;4679;47.966;7.958;2023-06-22T11:55:49;6.63;;;2.42;;
9280;SDS011;4679;47.966;7.958;2023-06-22T11:57:52;5.40;;;1.92;;
9280;SDS011;4679;47.966;7.958;2023-06-22T11:59:55;5.82;;;2.10;;
9280;SDS011;4679;47.966;7.958;2023-06-22T12:01:57;9.80;;;2.08;;
9280;SDS011;4679;47.966;7.958;2023-06-22T12:03:59;5.78;;;1.80;;
9280;SDS011;4679;47.966;7.958;2023-06-22T12:06:01;8.07;;;2.05;;
9280;SDS011;4679;47.966;7.958;2023-06-22T12:08:04;3.28;;;2.00;;
9280;SDS011;4679;47.966;7.958;2023-06-22T12:10:06;5.97;;;1.70;;
9280;SDS011;4679;47.966;7.958;2023-06-22T12:12:08;8.32;;;2.40;;
9280;SDS011;4679;47.966;7.958;2023-06-22T12:14:10;8.05;;;1.85;;
9280;SDS011;4679;47.966;7.958;2023-06-22T12:16:11;8.20;;;2.17;;
9280;SDS011;4679;47.966;7.958;2023-06-22T12:18:13;5.43;;;1.60;;
9280;SDS011;4679;47.966;7.958;2023-06-22T12:20:15;6.97;;;2.10;;
9280;SDS011;4679;47.966;7.958;2023-06-22T12:22:17;6.55;;;1.80;;
9280;SDS011;4679;47.966;7.958;2023-06-22T12:24:20;7.00;;;1.67;;
9280;SDS011;4679;47.966;7.958;2023-06-22T12:26:22;9.32;;;2.10;;
9280;SDS011;4679;47.966;7.958;2023-06-22T12:28:24;8.30;;;2.22;;
9280;SDS011;4679;47.966;7.958;2023-06-22T12:30:26;2.95;;;1.48;;
9280;SDS011;4679;47.966;7.958;2023-06-22T12:32:28;6.82;;;1.90;;
9280;SDS011;4679;47.966;7.958;2023-06-22T12:34:30;5.43;;;1.58;;
9280;SDS011;4679;47.966;7.958;2023-06-22T12:36:32;9.95;;;2.13;;
9280;SDS011;4679;47.966;7.958;2023-06-22T12:38:34;7.07;;;2.00;;
9280;SDS011;4679;47.966;7.958;2023-06-22T12:40:37;23.30;;;4.50;;
9280;SDS011;4679;47.966;7.958;2023-06-22T12:42:39;9.60;;;5.10;;
9280;SDS011;4679;47.966;7.958;2023-06-22T12:44:42;6.38;;;5.22;;
9280;SDS011;4679;47.966;7.958;2023-06-22T12:46:44;6.82;;;5.22;;
9280;SDS011;4679;47.966;7.958;2023-06-22T12:48:45;6.00;;;4.57;;
9280;SDS011;4679;47.966;7.958;2023-06-22T12:50:48;6.65;;;5.03;;
9280;SDS011;4679;47.966;7.958;2023-06-22T12:52:50;5.90;;;4.47;;
9280;SDS011;4679;47.966;7.958;2023-06-22T12:54:52;8.35;;;4.07;;
9280;SDS011;4679;47.966;7.958;2023-06-22T12:56:56;6.28;;;4.07;;
9280;SDS011;4679;47.966;7.958;2023-06-22T12:58:58;8.32;;;4.00;;
9280;SDS011;4679;47.966;7.958;2023-06-22T13:01:01;8.57;;;4.00;;
9280;SDS011;4679;47.966;7.958;2023-06-22T13:03:03;6.90;;;4.40;;
9280;SDS011;4679;47.966;7.958;2023-06-22T13:05:06;7.68;;;3.15;;
9280;SDS011;4679;47.966;7.958;2023-06-22T13:07:08;7.05;;;3.38;;
9280;SDS011;4679;47.966;7.958;2023-06-22T13:09:11;8.20;;;3.15;;
9280;SDS011;4679;47.966;7.958;2023-06-22T13:11:12;7.30;;;3.28;;
9280;SDS011;4679;47.966;7.958;2023-06-22T13:13:16;6.50;;;3.33;;
9280;SDS011;4679;47.966;7.958;2023-06-22T13:15:17;4.07;;;3.00;;
9280;SDS011;4679;47.966;7.958;2023-06-22T13:17:19;6.13;;;3.15;;
9280;SDS011;4679;47.966;7.958;2023-06-22T13:19:22;7.72;;;3.30;;
9280;SDS011;4679;47.966;7.958;2023-06-22T13:21:23;7.70;;;3.30;;
9280;SDS011;4679;47.966;7.958;2023-06-22T13:23:25;3.40;;;3.10;;
9280;SDS011;4679;47.966;7.958;2023-06-22T13:25:27;8.00;;;3.38;;
9280;SDS011;4679;47.966;7.958;2023-06-22T13:27:29;10.57;;;3.30;;
9280;SDS011;4679;47.966;7.958;2023-06-22T13:29:32;8.40;;;2.88;;
9280;SDS011;4679;47.966;7.958;2023-06-22T13:31:34;6.22;;;3.22;;
9280;SDS011;4679;47.966;7.958;2023-06-22T13:33:37;6.47;;;3.53;;
9280;SDS011;4679;47.966;7.958;2023-06-22T13:35:41;8.77;;;3.40;;
9280;SDS011;4679;47.966;7.958;2023-06-22T13:37:43;7.07;;;2.97;;
9280;SDS011;4679;47.966;7.958;2023-06-22T13:39:45;7.75;;;3.53;;
9280;SDS011;4679;47.966;7.958;2023-06-22T13:41:47;4.93;;;3.17;;
9280;SDS011;4679;47.966;7.958;2023-06-22T13:43:49;7.20;;;3.30;;
9280;SDS011;4679;47.966;7.958;2023-06-22T13:45:52;5.43;;;3.20;;
9280;SDS011;4679;47.966;7.958;2023-06-22T13:47:54;10.32;;;4.13;;
9280;SDS011;4679;47.966;7.958;2023-06-22T13:49:55;8.35;;;3.63;;
9280;SDS011;4679;47.966;7.958;2023-06-22T13:51:58;10.13;;;4.60;;
9280;SDS011;4679;47.966;7.958;2023-06-22T13:54:00;9.40;;;3.20;;
9280;SDS011;4679;47.966;7.958;2023-06-22T13:56:01;7.07;;;4.07;;
9280;SDS011;4679;47.966;7.958;2023-06-22T13:58:04;6.75;;;3.22;;
9280;SDS011;4679;47.966;7.958;2023-06-22T14:00:07;6.60;;;3.65;;
9280;SDS011;4679;47.966;7.958;2023-06-22T14:02:11;6.40;;;3.40;;
9280;SDS011;4679;47.966;7.958;2023-06-22T14:04:13;8.82;;;3.45;;
9280;SDS011;4679;47.966;7.958;2023-06-22T14:06:15;7.20;;;3.95;;
9280;SDS011;4679;47.966;7.958;2023-06-22T14:08:18;5.45;;;3.75;;
9280;SDS011;4679;47.966;7.958;2023-06-22T14:10:20;7.65;;;3.88;;
9280;SDS011;4679;47.966;7.958;2023-06-22T14:12:22;6.28;;;3.28;;
9280;SDS011;4679;47.966;7.958;2023-06-22T14:14:23;10.02;;;4.30;;
9280;SDS011;4679;47.966;7.958;2023-06-22T14:16:26;6.28;;;3.50;;
9280;SDS011;4679;47.966;7.958;2023-06-22T14:18:30;7.80;;;3.30;;
9280;SDS011;4679;47.966;7.958;2023-06-22T14:20:31;5.55;;;3.65;;
9280;SDS011;4679;47.966;7.958;2023-06-22T14:22:33;9.50;;;4.10;;
9280;SDS011;4679;47.966;7.958;2023-06-22T14:24:35;5.22;;;3.10;;
9280;SDS011;4679;47.966;7.958;2023-06-22T14:26:37;5.28;;;3.50;;
9280;SDS011;4679;47.966;7.958;2023-06-22T14:28:38;7.85;;;3.35;;
9280;SDS011;4679;47.966;7.958;2023-06-22T14:30:40;6.90;;;3.38;;
9280;SDS011;4679;47.966;7.958;2023-06-22T14:32:43;13.10;;;3.92;;
9280;SDS011;4679;47.966;7.958;2023-06-22T14:34:46;7.20;;;3.40;;
9280;SDS011;4679;47.966;7.958;2023-06-22T14:36:50;8.50;;;3.85;;
9280;SDS011;4679;47.966;7.958;2023-06-22T14:38:51;6.68;;;3.50;;
9280;SDS011;4679;47.966;7.958;2023-06-22T14:40:53;8.02;;;3.40;;
9280;SDS011;4679;47.966;7.958;2023-06-22T14:42:55;8.55;;;4.03;;
9280;SDS011;4679;47.966;7.958;2023-06-22T14:44:56;9.82;;;3.47;;
9280;SDS011;4679;47.966;7.958;2023-06-22T14:46:58;5.65;;;4.22;;
9280;SDS011;4679;47.966;7.958;2023-06-22T14:49:00;8.07;;;4.57;;
9280;SDS011;4679;47.966;7.958;2023-06-22T14:51:03;8.20;;;3.88;;
9280;SDS011;4679;47.966;7.958;2023-06-22T14:53:06;7.55;;;4.13;;
9280;SDS011;4679;47.966;7.958;2023-06-22T14:55:08;6.55;;;3.00;;
9280;SDS011;4679;47.966;7.958;2023-06-22T14:57:10;10.45;;;3.60;;
9280;SDS011;4679;47.966;7.958;2023-06-22T14:59:12;14.38;;;3.67;;
9280;SDS011;4679;47.966;7.958;2023-06-22T15:01:14;6.18;;;3.17;;
9280;SDS011;4679;47.966;7.958;2023-06-22T15:03:17;9.23;;;3.88;;
9280;SDS011;4679;47.966;7.958;2023-06-22T15:05:21;9.50;;;4.43;;
9280;SDS011;4679;47.966;7.958;2023-06-22T15:07:25;7.53;;;3.22;;
9280;SDS011;4679;47.966;7.958;2023-06-22T15:09:27;2.88;;;2.53;;
9280;SDS011;4679;47.966;7.958;2023-06-22T15:11:28;4.50;;;1.80;;
9280;SDS011;4679;47.966;7.958;2023-06-22T15:13:30;4.07;;;1.80;;
9280;SDS011;4679;47.966;7.958;2023-06-22T15:15:34;2.33;;;1.30;;
9280;SDS011;4679;47.966;7.958;2023-06-22T15:17:36;2.63;;;1.75;;
9280;SDS011;4679;47.966;7.958;2023-06-22T15:19:37;4.95;;;1.50;;
9280;SDS011;4679;47.966;7.958;2023-06-22T15:21:39;4.00;;;1.58;;
9280;SDS011;4679;47.966;7.958;2023-06-22T15:23:42;3.28;;;1.50;;
9280;SDS011;4679;47.966;7.958;2023-06-22T15:25:43;5.72;;;1.63;;
9280;SDS011;4679;47.966;7.958;2023-06-22T15:27:46;4.22;;;1.60;;
9280;SDS011;4679;47.966;7.958;2023-06-22T15:29:47;4.22;;;1.80;;
9280;SDS011;4679;47.966;7.958;2023-06-22T15:31:49;3.65;;;1.63;;
9280;SDS011;4679;47.966;7.958;2023-06-22T15:33:51;3.90;;;1.88;;
9280;SDS011;4679;47.966;7.958;2023-06-22T15:35:52;7.28;;;1.77;;
9280;SDS011;4679;47.966;7.958;2023-06-22T15:37:55;1.70;;;1.60;;
9280;SDS011;4679;47.966;7.958;2023-06-22T15:39:59;2.95;;;1.55;;
9280;SDS011;4679;47.966;7.958;2023-06-22T15:42:00;5.25;;;1.50;;
9280;SDS011;4679;47.966;7.958;2023-06-22T15:44:02;2.90;;;1.63;;
9280;SDS011;4679;47.966;7.958;2023-06-22T15:46:04;4.70;;;1.70;;
9280;SDS011;4679;47.966;7.958;2023-06-22T15:48:05;4.72;;;1.55;;
9280;SDS011;4679;47.966;7.958;2023-06-22T15:50:07;4.07;;;1.60;;
9280;SDS011;4679;47.966;7.958;2023-06-22T15:52:09;3.15;;;1.60;;
9280;SDS011;4679;47.966;7.958;2023-06-22T15:54:12;5.28;;;1.48;;
9280;SDS011;4679;47.966;7.958;2023-06-22T15:56:15;4.72;;;1.75;;
9280;SDS011;4679;47.966;7.958;2023-06-22T15:58:16;7.60;;;1.77;;
9280;SDS011;4679;47.966;7.958;2023-06-22T16:00:18;3.35;;;1.60;;
9280;SDS011;4679;47.966;7.958;2023-06-22T16:02:21;3.85;;;1.58;;
9280;SDS011;4679;47.966;7.958;2023-06-22T16:04:22;4.88;;;1.80;;
9280;SDS011;4679;47.966;7.958;2023-06-22T16:06:24;8.90;;;2.03;;
9280;SDS011;4679;47.966;7.958;2023-06-22T16:08:26;3.83;;;1.52;;
9280;SDS011;4679;47.966;7.958;2023-06-22T16:10:30;4.60;;;1.70;;
9280;SDS011;4679;47.966;7.958;2023-06-22T16:12:34;4.20;;;2.10;;
9280;SDS011;4679;47.966;7.958;2023-06-22T16:14:36;3.92;;;1.80;;
9280;SDS011;4679;47.966;7.958;2023-06-22T16:16:37;4.18;;;1.50;;
9280;SDS011;4679;47.966;7.958;2023-06-22T16:18:39;4.25;;;1.67;;
9280;SDS011;4679;47.966;7.958;2023-06-22T16:20:42;4.18;;;1.58;;
9280;SDS011;4679;47.966;7.958;2023-06-22T16:22:46;3.72;;;1.60;;
9280;SDS011;4679;47.966;7.958;2023-06-22T16:24:48;8.27;;;2.42;;
9280;SDS011;4679;47.966;7.958;2023-06-22T16:26:50;7.68;;;1.58;;
9280;SDS011;4679;47.966;7.958;2023-06-22T16:28:53;2.22;;;1.60;;
9280;SDS011;4679;47.966;7.958;2023-06-22T16:30:54;3.30;;;1.92;;
9280;SDS011;4679;47.966;7.958;2023-06-22T16:32:56;3.13;;;1.30;;
9280;SDS011;4679;47.966;7.958;2023-06-22T16:34:58;5.95;;;1.98;;
9280;SDS011;4679;47.966;7.958;2023-06-22T16:37:00;2.40;;;1.42;;
9280;SDS011;4679;47.966;7.958;2023-06-22T16:39:02;2.40;;;1.50;;
9280;SDS011;4679;47.966;7.958;2023-06-22T16:41:04;3.95;;;1.30;;
9280;SDS011;4679;47.966;7.958;2023-06-22T16:43:07;2.45;;;1.42;;
9280;SDS011;4679;47.966;7.958;2023-06-22T16:45:10;4.18;;;1.95;;
9280;SDS011;4679;47.966;7.958;2023-06-22T16:47:14;4.20;;;1.67;;
9280;SDS011;4679;47.966;7.958;2023-06-22T16:49:15;6.03;;;1.80;;
9280;SDS011;4679;47.966;7.958;2023-06-22T16:51:17;6.63;;;1.73;;
9280;SDS011;4679;47.966;7.958;2023-06-22T16:53:19;2.97;;;1.55;;
9280;SDS011;4679;47.966;7.958;2023-06-22T16:55:23;2.97;;;1.40;;
9280;SDS011;4679;47.966;7.958;2023-06-22T16:57:28;6.55;;;1.92;;
9280;SDS011;4679;47.966;7.958;2023-06-22T16:59:30;4.30;;;1.60;;
9280;SDS011;4679;47.966;7.958;2023-06-22T17:01:33;3.10;;;1.40;;
9280;SDS011;4679;47.966;7.958;2023-06-22T17:03:44;3.80;;;1.80;;
9280;SDS011;4679;47.966;7.958;2023-06-22T17:05:52;4.03;;;1.40;;
9280;SDS011;4679;47.966;7.958;2023-06-22T17:07:56;5.18;;;1.95;;
9280;SDS011;4679;47.966;7.958;2023-06-22T17:10:02;3.38;;;1.40;;
9280;SDS011;4679;47.966;7.958;2023-06-22T17:12:07;4.80;;;1.55;;
9280;SDS011;4679;47.966;7.958;2023-06-22T17:14:10;6.10;;;2.00;;
9280;SDS011;4679;47.966;7.958;2023-06-22T17:16:13;6.05;;;1.35;;
9280;SDS011;4679;47.966;7.958;2023-06-22T17:18:16;3.88;;;1.52;;
9280;SDS011;4679;47.966;7.958;2023-06-22T17:20:19;2.47;;;1.40;;
9280;SDS011;4679;47.966;7.958;2023-06-22T17:22:22;3.17;;;1.67;;
9280;SDS011;4679;47.966;7.958;2023-06-22T17:24:23;3.08;;;1.40;;
9280;SDS011;4679;47.966;7.958;2023-06-22T17:26:25;3.55;;;1.85;;
9280;SDS011;4679;47.966;7.958;2023-06-22T17:28:27;2.60;;;1.50;;
9280;SDS011;4679;47.966;7.958;2023-06-22T17:30:48;3.30;;;1.27;;
9280;SDS011;4679;47.966;7.958;2023-06-22T17:33:10;2.33;;;1.33;;
9280;SDS011;4679;47.966;7.958;2023-06-22T17:35:17;2.55;;;1.65;;
9280;SDS011;4679;47.966;7.958;2023-06-22T17:37:18;2.80;;;1.50;;
9280;SDS011;4679;47.966;7.958;2023-06-22T17:39:21;2.70;;;1.25;;
9280;SDS011;4679;47.966;7.958;2023-06-22T17:41:28;2.55;;;1.50;;
9280;SDS011;4679;47.966;7.958;2023-06-22T17:43:42;3.90;;;1.70;;
9280;SDS011;4679;47.966;7.958;2023-06-22T17:45:45;2.38;;;1.30;;
9280;SDS011;4679;47.966;7.958;2023-06-22T17:47:47;3.20;;;1.50;;
9280;SDS011;4679;47.966;7.958;2023-06-22T17:49:49;3.72;;;1.80;;
9280;SDS011;4679;47.966;7.958;2023-06-22T17:51:52;3.55;;;1.38;;
9280;SDS011;4679;47.966;7.958;2023-06-22T17:53:55;4.03;;;1.45;;
9280;SDS011;4679;47.966;7.958;2023-06-22T17:55:58;4.03;;;1.83;;
9280;SDS011;4679;47.966;7.958;2023-06-22T17:58:02;8.07;;;1.40;;
9280;SDS011;4679;47.966;7.958;2023-06-22T18:00:06;2.47;;;1.63;;
9280;SDS011;4679;47.966;7.958;2023-06-22T18:02:10;6.05;;;1.95;;
9280;SDS011;4679;47.966;7.958;2023-06-22T18:04:13;3.40;;;0.90;;
9280;SDS011;4679;47.966;7.958;2023-06-22T18:06:16;3.20;;;1.50;;
9280;SDS011;4679;47.966;7.958;2023-06-22T18:08:20;1.85;;;0.45;;
9280;SDS011;4679;47.966;7.958;2023-06-22T18:10:26;3.08;;;0.63;;
9280;SDS011;4679;47.966;7.958;2023-06-22T18:12:30;3.13;;;0.50;;
9280;SDS011;4679;47.966;7.958;2023-06-22T18:14:33;1.30;;;0.40;;
9280;SDS011;4679;47.966;7.958;2023-06-22T18:16:35;1.60;;;0.60;;
9280;SDS011;4679;47.966;7.958;2023-06-22T18:18:37;2.08;;;0.50;;
9280;SDS011;4679;47.966;7.958;2023-06-22T18:20:40;4.45;;;0.57;;
9280;SDS011;4679;47.966;7.958;2023-06-22T18:22:43;1.65;;;0.40;;
9280;SDS011;4679;47.966;7.958;2023-06-22T18:24:47;1.87;;;0.50;;
9280;SDS011;4679;47.966;7.958;2023-06-22T18:26:50;0.87;;;0.40;;
9280;SDS011;4679;47.966;7.958;2023-06-22T18:28:54;1.80;;;0.50;;
9280;SDS011;4679;47.966;7.958;2023-06-22T18:30:57;3.60;;;0.60;;
9280;SDS011;4679;47.966;7.958;2023-06-22T18:32:59;1.13;;;0.30;;
9280;SDS011;4679;47.966;7.958;2023-06-22T18:35:01;1.23;;;0.40;;
9280;SDS011;4679;47.966;7.958;2023-06-22T18:37:05;0.70;;;0.40;;
9280;SDS011;4679;47.966;7.958;2023-06-22T18:39:10;0.60;;;0.50;;
9280;SDS011;4679;47.966;7.958;2023-06-22T18:41:21;0.90;;;0.80;;
9280;SDS011;4679;47.966;7.958;2023-06-22T18:43:23;2.00;;;0.70;;
9280;SDS011;4679;47.966;7.958;2023-06-22T18:45:26;1.00;;;0.50;;
9280;SDS011;4679;47.966;7.958;2023-06-22T18:47:29;1.13;;;0.60;;
9280;SDS011;4679;47.966;7.958;2023-06-22T18:49:32;1.60;;;0.63;;